Time;durP1;ratioP1;P1;durP2;ratioP2;P2;SDS_P1;SDS_P2;PMS_P1;PMS_P2;Temp;Humidity;BMP_temperature;BMP_pressure;BME280_temperature;BME280_humidity;BME280_pressure;Samples;Min_cycle;Max_cycle;Signal;HPM_P1;HPM_P2
2021/08/27 00:01:07;;;;;;;6.15;4.00;;;15.60;99.90;;;;;;4902144;29;20524;-76
2021/08/27 00:03:35;;;;;;;10.20;9.40;;;15.70;99.90;;;;;;4929734;29;20235;-78
2021/08/27 00:06:04;;;;;;;6.28;5.68;;;15.70;99.90;;;;;;4938865;29;20504;-78
2021/08/27 00:08:32;;;;;;;9.27;8.47;;;15.70;99.90;;;;;;4941063;29;20239;-78
2021/08/27 00:11:01;;;;;;;10.40;9.67;;;15.70;99.90;;;;;;4932917;29;20463;-78
2021/08/27 00:13:30;;;;;;;10.70;9.80;;;15.60;99.90;;;;;;4914249;29;20519;-77
2021/08/27 00:15:58;;;;;;;10.43;9.83;;;15.60;99.90;;;;;;4909708;29;20499;-76
2021/08/27 00:18:26;;;;;;;10.23;9.53;;;15.60;99.90;;;;;;4939197;29;20430;-77
2021/08/27 00:20:54;;;;;;;12.37;11.57;;;15.50;99.90;;;;;;4920276;29;20429;-77
2021/08/27 00:23:23;;;;;;;11.73;10.93;;;15.50;99.90;;;;;;4922482;29;20458;-78
2021/08/27 00:25:51;;;;;;;10.50;9.83;;;15.40;99.90;;;;;;4934268;29;20528;-79
2021/08/27 00:28:21;;;;;;;12.63;11.80;;;15.40;99.90;;;;;;4902797;29;20460;-79
2021/08/27 00:30:49;;;;;;;11.83;11.03;;;15.40;99.90;;;;;;4919267;29;20429;-77
2021/08/27 00:33:17;;;;;;;8.23;7.47;;;15.30;99.90;;;;;;4900732;29;20533;-77
2021/08/27 00:35:46;;;;;;;9.60;9.00;;;15.40;99.90;;;;;;4912546;29;20214;-77
2021/08/27 00:38:15;;;;;;;10.70;10.00;;;15.30;99.90;;;;;;4935194;29;20433;-77
2021/08/27 00:40:47;;;;;;;10.47;9.77;;;15.30;99.90;;;;;;4918035;29;20475;-77
2021/08/27 00:43:15;;;;;;;10.77;9.90;;;15.30;99.90;;;;;;4924711;29;20959;-76
2021/08/27 00:45:45;;;;;;;11.77;10.80;;;15.20;99.90;;;;;;4907419;29;20962;-77
2021/08/27 00:48:15;;;;;;;10.70;10.10;;;15.20;99.90;;;;;;4916469;29;20426;-77
2021/08/27 00:50:44;;;;;;;11.50;10.80;;;15.20;99.90;;;;;;4918378;29;20531;-77
2021/08/27 00:53:12;;;;;;;13.03;12.23;;;15.20;99.90;;;;;;4901040;29;20472;-77
2021/08/27 00:55:41;;;;;;;13.33;12.53;;;15.20;99.90;;;;;;4920510;29;20520;-78
2021/08/27 00:58:09;;;;;;;10.53;9.83;;;15.20;99.90;;;;;;4904391;29;20457;-77
2021/08/27 01:00:37;;;;;;;12.87;12.03;;;15.10;99.90;;;;;;4935467;29;20533;-77
2021/08/27 01:03:08;;;;;;;12.67;11.80;;;15.10;99.90;;;;;;4929425;29;20830;-77
2021/08/27 01:05:40;;;;;;;11.60;10.90;;;15.10;99.90;;;;;;4921745;29;20395;-77
2021/08/27 01:08:16;;;;;;;11.40;10.70;;;15.10;99.90;;;;;;4919634;29;20463;-78
2021/08/27 01:10:49;;;;;;;10.20;9.50;;;15.10;99.90;;;;;;4920988;29;20490;-78
2021/08/27 01:13:25;;;;;;;6.50;3.20;;;15.10;99.90;;;;;;4921692;29;20441;-78
2021/08/27 01:16:03;;;;;;;9.70;8.83;;;15.10;99.90;;;;;;4924343;29;20665;-77
2021/08/27 01:18:39;;;;;;;10.63;9.73;;;15.20;99.90;;;;;;4934641;29;20464;-77
2021/08/27 01:21:39;;;;;;;10.07;9.57;;;15.20;99.90;;;;;;4922412;29;20473;-76
2021/08/27 01:24:10;;;;;;;10.90;10.10;;;15.10;99.90;;;;;;4940076;29;20550;-78
2021/08/27 01:26:42;;;;;;;11.73;10.97;;;15.10;99.90;;;;;;4939845;29;20446;-77
2021/08/27 01:29:45;;;;;;;13.70;13.00;;;15.00;99.90;;;;;;4939792;29;20809;-77
2021/08/27 01:32:21;;;;;;;11.10;10.40;;;15.00;99.90;;;;;;4920346;29;20548;-78
2021/08/27 01:34:53;;;;;;;13.00;11.87;;;15.00;99.90;;;;;;4921224;29;20495;-78
2021/08/27 01:37:23;;;;;;;10.80;10.10;;;15.00;99.90;;;;;;4921122;29;20433;-78
2021/08/27 01:39:56;;;;;;;12.13;11.40;;;14.90;99.90;;;;;;4906790;29;20934;-78
2021/08/27 01:42:27;;;;;;;12.63;11.90;;;14.90;99.90;;;;;;4903344;29;20476;-77
2021/08/27 01:44:57;;;;;;;10.57;9.87;;;14.90;99.90;;;;;;4903184;29;20928;-77
2021/08/27 01:47:27;;;;;;;11.23;10.53;;;14.90;99.90;;;;;;4920025;29;20508;-78
2021/08/27 01:49:57;;;;;;;12.37;11.53;;;14.90;99.90;;;;;;4903729;29;20453;-79
2021/08/27 01:52:27;;;;;;;9.80;9.20;;;14.90;99.90;;;;;;4919001;29;20464;-78
2021/08/27 01:54:56;;;;;;;10.27;9.50;;;14.80;99.90;;;;;;4927344;29;20437;-78
2021/08/27 01:57:26;;;;;;;10.93;10.10;;;14.80;99.90;;;;;;4920640;29;20524;-78
2021/08/27 01:59:55;;;;;;;12.53;11.73;;;14.80;99.90;;;;;;4903819;29;20444;-78
2021/08/27 02:02:24;;;;;;;10.30;9.10;;;14.80;99.90;;;;;;4939281;29;20803;-78
2021/08/27 02:04:55;;;;;;;10.93;10.20;;;14.90;99.90;;;;;;4922134;29;20452;-78
2021/08/27 02:07:24;;;;;;;9.43;8.83;;;14.90;99.90;;;;;;4921218;29;20555;-77
2021/08/27 02:09:56;;;;;;;11.70;10.80;;;14.80;99.90;;;;;;4912530;29;20477;-78
2021/08/27 02:12:25;;;;;;;11.37;10.57;;;14.90;99.90;;;;;;4902844;29;20464;-78
2021/08/27 02:14:56;;;;;;;7.50;3.40;;;14.90;99.90;;;;;;4901477;29;20549;-78
2021/08/27 02:17:25;;;;;;;8.37;7.73;;;14.90;99.90;;;;;;4920377;29;20208;-78
2021/08/27 02:19:53;;;;;;;5.28;3.83;;;14.90;99.90;;;;;;4903112;29;20505;-78
2021/08/27 02:22:25;;;;;;;9.60;9.00;;;14.90;99.90;;;;;;4903865;29;20200;-76
2021/08/27 02:24:58;;;;;;;8.27;7.67;;;14.90;99.90;;;;;;4902044;29;20528;-77
2021/08/27 02:27:27;;;;;;;9.70;9.00;;;14.90;99.90;;;;;;4902438;29;20547;-76
2021/08/27 02:29:57;;;;;;;10.53;9.50;;;14.90;99.90;;;;;;4905813;29;20448;-77
2021/08/27 02:32:27;;;;;;;8.90;8.30;;;14.90;99.90;;;;;;4920562;29;20476;-78
2021/08/27 02:35:00;;;;;;;10.13;9.23;;;14.90;99.90;;;;;;4903358;29;20810;-78
2021/08/27 02:37:33;;;;;;;9.40;8.60;;;14.80;99.90;;;;;;4930293;29;20462;-76
2021/08/27 02:40:03;;;;;;;9.20;8.50;;;14.90;99.90;;;;;;4937849;29;20416;-76
2021/08/27 02:42:32;;;;;;;9.80;8.90;;;14.80;99.90;;;;;;4906483;29;20440;-77
2021/08/27 02:45:01;;;;;;;9.63;8.53;;;14.80;99.90;;;;;;4898747;29;20981;-76
2021/08/27 02:47:29;;;;;;;10.30;9.50;;;14.80;99.90;;;;;;4898992;29;20478;-77
2021/08/27 02:49:58;;;;;;;9.50;8.87;;;14.80;99.90;;;;;;4899169;29;20288;-78
2021/08/27 02:52:31;;;;;;;9.07;8.43;;;14.80;99.90;;;;;;4899204;29;20970;-79
2021/08/27 02:55:04;;;;;;;6.22;3.30;;;14.80;99.90;;;;;;4885914;29;20456;-77
2021/08/27 02:57:38;;;;;;;7.80;7.20;;;14.90;99.90;;;;;;4882853;29;20198;-77
2021/08/27 03:00:08;;;;;;;8.80;8.07;;;14.90;99.90;;;;;;4898839;29;20861;-77
2021/08/27 03:02:37;;;;;;;8.37;7.77;;;14.90;99.90;;;;;;4900674;29;20555;-77
2021/08/27 03:05:10;;;;;;;8.50;7.90;;;14.80;99.90;;;;;;4903099;29;20576;-78
2021/08/27 03:07:54;;;;;;;9.13;8.20;;;14.80;99.90;;;;;;4901777;29;20829;-78
2021/08/27 03:10:28;;;;;;;7.67;7.07;;;14.80;99.90;;;;;;4907172;29;20854;-78
2021/08/27 03:13:02;;;;;;;8.87;8.07;;;14.90;99.90;;;;;;4903819;29;20468;-78
2021/08/27 03:15:38;;;;;;;9.53;8.90;;;14.80;99.90;;;;;;4920541;29;20459;-77
2021/08/27 03:18:10;;;;;;;8.77;7.90;;;14.80;99.90;;;;;;4918827;29;20447;-77
2021/08/27 03:20:43;;;;;;;8.03;7.43;;;14.80;99.90;;;;;;4919923;29;20535;-77
2021/08/27 03:23:16;;;;;;;6.80;3.55;;;14.80;99.90;;;;;;4919764;29;20500;-77
2021/08/27 03:25:47;;;;;;;7.20;6.63;;;14.90;99.90;;;;;;4924153;29;20200;-77
2021/08/27 03:28:19;;;;;;;9.57;4.05;;;14.80;99.90;;;;;;4922545;29;20597;-77
2021/08/27 03:30:49;;;;;;;7.80;7.00;;;14.80;99.90;;;;;;4921697;29;20230;-77
2021/08/27 03:33:18;;;;;;;7.00;6.40;;;14.80;99.90;;;;;;4926852;29;20892;-77
2021/08/27 03:35:50;;;;;;;7.27;6.57;;;14.80;99.90;;;;;;4897794;29;20461;-77
2021/08/27 03:38:20;;;;;;;7.00;6.40;;;14.80;99.90;;;;;;4900460;29;20507;-78
2021/08/27 03:40:51;;;;;;;6.60;5.43;;;14.70;99.90;;;;;;4901205;29;20434;-77
2021/08/27 03:43:20;;;;;;;6.67;6.17;;;14.70;99.90;;;;;;4899398;29;20431;-78
2021/08/27 03:45:49;;;;;;;7.20;6.50;;;14.70;99.90;;;;;;4899239;29;20440;-78
2021/08/27 03:48:19;;;;;;;7.83;7.10;;;14.70;99.90;;;;;;4898493;29;20958;-77
2021/08/27 03:50:49;;;;;;;8.13;7.43;;;14.70;99.90;;;;;;4923109;29;20436;-76
2021/08/27 03:53:18;;;;;;;6.38;3.58;;;14.70;99.90;;;;;;4919569;29;20477;-77
2021/08/27 03:55:50;;;;;;;7.33;6.70;;;14.70;99.90;;;;;;4938277;29;20202;-78
2021/08/27 03:58:21;;;;;;;6.07;5.22;;;14.70;99.90;;;;;;4920993;29;20464;-78
2021/08/27 04:00:50;;;;;;;7.10;6.50;;;14.70;99.90;;;;;;4920354;29;20768;-77
2021/08/27 04:03:20;;;;;;;8.80;6.53;;;14.70;99.90;;;;;;4920843;29;20470;-78
2021/08/27 04:05:58;;;;;;;7.37;6.77;;;14.70;99.90;;;;;;4918076;29;20460;-77
2021/08/27 04:08:27;;;;;;;9.13;8.30;;;14.70;99.90;;;;;;4883787;29;20476;-77
2021/08/27 04:10:56;;;;;;;9.17;8.57;;;14.70;99.90;;;;;;4917439;29;20456;-77
2021/08/27 04:13:24;;;;;;;8.10;7.40;;;14.60;99.90;;;;;;4900114;29;20913;-76
2021/08/27 04:15:53;;;;;;;8.33;7.73;;;14.70;99.90;;;;;;4933703;29;20515;-76
2021/08/27 04:18:21;;;;;;;9.60;8.80;;;14.70;99.90;;;;;;4919303;29;20448;-79
2021/08/27 04:20:49;;;;;;;9.67;8.70;;;14.60;99.90;;;;;;4919002;29;20459;-77
2021/08/27 04:23:17;;;;;;;10.10;9.13;;;14.70;99.90;;;;;;4918885;29;20449;-78
2021/08/27 04:25:46;;;;;;;8.50;7.87;;;14.70;99.90;;;;;;4919365;29;20866;-76
2021/08/27 04:28:15;;;;;;;7.53;5.93;;;14.70;99.90;;;;;;4918710;29;20513;-76
2021/08/27 04:30:43;;;;;;;8.27;7.60;;;14.70;99.90;;;;;;4930282;29;20444;-77
2021/08/27 04:33:12;;;;;;;8.03;7.30;;;14.70;99.90;;;;;;4932451;29;20450;-78
2021/08/27 04:35:40;;;;;;;6.63;2.83;;;14.70;99.90;;;;;;4903370;29;20461;-76
2021/08/27 04:38:08;;;;;;;6.43;5.60;;;14.80;99.90;;;;;;4920853;29;20205;-76
2021/08/27 04:40:37;;;;;;;7.90;7.40;;;14.80;99.90;;;;;;4921671;29;20488;-77
2021/08/27 04:43:05;;;;;;;36.60;9.97;;;14.80;99.90;;;;;;4922645;29;20464;-78
2021/08/27 04:45:34;;;;;;;8.43;7.73;;;14.80;99.90;;;;;;4925158;29;20559;-77
2021/08/27 04:48:03;;;;;;;9.97;8.53;;;14.80;99.90;;;;;;4939017;29;20451;-78
2021/08/27 04:50:31;;;;;;;7.60;7.00;;;14.80;99.90;;;;;;4920207;29;20458;-77
2021/08/27 04:52:59;;;;;;;7.90;7.30;;;14.80;99.90;;;;;;4920300;29;20822;-77
2021/08/27 04:55:27;;;;;;;7.43;6.93;;;14.80;99.90;;;;;;4920479;29;20451;-76
2021/08/27 04:57:56;;;;;;;8.60;7.90;;;14.80;99.90;;;;;;4903628;29;20448;-76
2021/08/27 05:00:24;;;;;;;8.00;7.40;;;14.80;99.90;;;;;;4924705;29;20440;-78
2021/08/27 05:02:54;;;;;;;8.40;7.60;;;14.80;99.90;;;;;;4923016;29;20472;-78
2021/08/27 05:05:24;;;;;;;4.50;2.50;;;14.80;99.90;;;;;;4942337;29;20536;-76
2021/08/27 05:07:52;;;;;;;5.13;4.73;;;14.90;99.90;;;;;;4940490;29;20440;-76
2021/08/27 05:10:20;;;;;;;5.70;2.70;;;14.90;99.90;;;;;;4916180;29;20519;-77
2021/08/27 05:12:49;;;;;;;6.23;5.43;;;15.00;99.90;;;;;;4941063;29;20220;-78
2021/08/27 05:15:17;;;;;;;6.60;6.00;;;15.00;99.90;;;;;;4950419;23;20476;-71
2021/08/27 05:17:45;;;;;;;8.33;7.70;;;15.00;99.90;;;;;;4958185;29;20910;-71
2021/08/27 05:20:15;;;;;;;8.03;7.27;;;15.00;99.90;;;;;;4940762;29;20526;-71
2021/08/27 05:22:43;;;;;;;9.67;8.53;;;15.00;99.90;;;;;;4945359;29;20788;-71
2021/08/27 05:25:12;;;;;;;8.40;7.67;;;15.00;99.90;;;;;;4938783;29;20471;-71
2021/08/27 05:27:41;;;;;;;7.30;6.70;;;15.00;99.90;;;;;;4938622;29;20952;-71
2021/08/27 05:30:12;;;;;;;8.20;7.43;;;15.10;99.90;;;;;;4938495;29;20444;-71
2021/08/27 05:32:40;;;;;;;10.77;9.97;;;15.00;99.90;;;;;;4938699;29;20524;-71
2021/08/27 05:35:09;;;;;;;9.33;8.43;;;15.10;99.90;;;;;;4937887;29;20447;-71
2021/08/27 05:37:38;;;;;;;11.43;8.03;;;15.10;99.90;;;;;;4921196;29;20452;-72
2021/08/27 05:40:11;;;;;;;6.05;3.03;;;15.10;99.90;;;;;;4937786;29;20449;-71
2021/08/27 05:42:45;;;;;;;6.20;5.60;;;15.20;99.90;;;;;;4937405;29;20282;-71
2021/08/27 05:45:15;;;;;;;5.88;2.90;;;15.20;99.90;;;;;;4920405;29;20444;-71
2021/08/27 05:47:43;;;;;;;5.50;5.00;;;15.30;99.90;;;;;;4938680;29;20199;-71
2021/08/27 05:50:14;;;;;;;6.43;5.93;;;15.30;99.90;;;;;;4938511;29;20513;-71
2021/08/27 05:52:45;;;;;;;9.50;8.70;;;15.30;99.90;;;;;;4938328;29;20423;-71
2021/08/27 05:55:14;;;;;;;7.70;6.20;;;15.30;99.90;;;;;;4937557;29;20972;-71
2021/08/27 05:57:42;;;;;;;8.20;7.50;;;15.30;99.90;;;;;;4938175;29;20459;-71
2021/08/27 06:00:11;;;;;;;7.87;7.10;;;15.30;99.90;;;;;;4937930;29;20447;-71
2021/08/27 06:02:40;;;;;;;8.17;7.27;;;15.30;99.90;;;;;;4938527;29;20443;-71
2021/08/27 06:05:09;;;;;;;10.97;9.90;;;15.30;99.90;;;;;;4920982;29;20472;-71
2021/08/27 06:07:37;;;;;;;13.13;12.00;;;15.30;99.90;;;;;;4938005;29;20435;-70
2021/08/27 06:10:11;;;;;;;7.43;6.77;;;15.30;99.90;;;;;;4937915;29;20443;-70
2021/08/27 06:12:39;;;;;;;6.83;6.23;;;15.40;99.90;;;;;;4938655;29;20444;-71
2021/08/27 06:15:09;;;;;;;9.80;9.00;;;15.40;99.90;;;;;;4935456;29;20844;-70
2021/08/27 06:17:38;;;;;;;11.33;10.33;;;15.40;99.90;;;;;;4937993;29;20426;-71
2021/08/27 06:20:08;;;;;;;6.63;4.93;;;15.40;99.90;;;;;;4937960;29;20793;-70
2021/08/27 06:22:36;;;;;;;7.97;6.87;;;15.50;99.90;;;;;;4938324;29;20526;-71
2021/08/27 06:25:05;;;;;;;12.10;8.93;;;15.50;99.90;;;;;;4937611;29;20472;-70
2021/08/27 06:27:35;;;;;;;11.20;10.33;;;15.50;99.90;;;;;;4937846;29;20436;-70
2021/08/27 06:30:05;;;;;;;9.07;8.50;;;15.50;99.90;;;;;;4937885;29;20450;-70
2021/08/27 06:32:33;;;;;;;10.50;8.93;;;15.60;99.90;;;;;;4937765;29;20916;-71
2021/08/27 06:35:06;;;;;;;11.13;10.10;;;15.60;99.90;;;;;;4935514;29;20957;-71
2021/08/27 06:40:21;;;;;;;7.90;7.30;;;15.60;99.90;;;;;;4937395;29;20876;-71
2021/08/27 06:42:50;;;;;;;12.60;11.70;;;15.60;99.90;;;;;;4937363;29;20471;-71
2021/08/27 06:45:19;;;;;;;12.13;11.00;;;15.60;99.90;;;;;;4937735;29;20478;-70
2021/08/27 06:47:47;;;;;;;10.47;9.33;;;15.70;99.90;;;;;;4937133;29;20442;-70
2021/08/27 06:50:15;;;;;;;7.72;3.10;;;15.70;99.90;;;;;;4936287;29;20808;-70
2021/08/27 06:52:43;;;;;;;6.70;6.13;;;15.80;99.90;;;;;;4937125;29;20562;-71
2021/08/27 06:55:12;;;;;;;5.78;3.60;;;15.80;99.90;;;;;;4936958;29;20848;-71
2021/08/27 06:57:40;;;;;;;7.10;6.53;;;15.80;99.90;;;;;;4920075;29;20192;-71
2021/08/27 07:00:11;;;;;;;6.90;6.30;;;15.90;99.90;;;;;;4937225;29;21012;-71
2021/08/27 07:02:39;;;;;;;7.83;7.13;;;15.90;99.90;;;;;;4936843;29;20406;-71
2021/08/27 07:05:09;;;;;;;8.73;7.93;;;15.90;99.90;;;;;;4934914;29;20551;-70
2021/08/27 07:07:37;;;;;;;10.03;9.00;;;15.90;99.90;;;;;;4937329;29;20539;-71
2021/08/27 07:10:07;;;;;;;10.03;7.63;;;16.00;99.90;;;;;;4919874;29;20975;-70
2021/08/27 07:12:35;;;;;;;7.63;6.93;;;16.00;99.90;;;;;;4937011;29;20849;-70
2021/08/27 07:15:05;;;;;;;8.80;8.20;;;16.00;99.90;;;;;;4936817;29;20443;-71
2021/08/27 07:17:35;;;;;;;9.70;9.00;;;16.00;99.90;;;;;;4936775;29;20435;-71
2021/08/27 07:20:04;;;;;;;8.50;7.90;;;16.10;99.90;;;;;;4936675;29;20475;-71
2021/08/27 07:22:33;;;;;;;9.60;8.87;;;16.10;99.90;;;;;;4920089;29;20462;-71
2021/08/27 07:25:01;;;;;;;6.13;3.30;;;16.10;99.90;;;;;;4934469;29;20451;-71
2021/08/27 07:27:29;;;;;;;6.43;5.83;;;16.20;99.90;;;;;;4937859;29;20683;-71
2021/08/27 07:29:58;;;;;;;8.77;3.33;;;16.20;99.90;;;;;;4919924;29;20569;-70
2021/08/27 07:32:26;;;;;;;11.10;7.43;;;16.30;99.90;;;;;;4937310;29;20200;-71
2021/08/27 07:34:56;;;;;;;11.33;10.33;;;16.30;99.90;;;;;;4920027;29;20434;-70
2021/08/27 07:37:24;;;;;;;7.90;7.17;;;16.30;99.90;;;;;;4937729;29;20398;-70
2021/08/27 07:39:53;;;;;;;8.90;8.03;;;16.30;99.90;;;;;;4920275;29;21018;-70
2021/08/27 07:42:21;;;;;;;10.03;9.43;;;16.30;99.90;;;;;;4937344;29;20432;-69
2021/08/27 07:44:49;;;;;;;12.70;11.73;;;16.40;99.90;;;;;;4937199;29;20445;-69
2021/08/27 07:47:17;;;;;;;8.63;8.10;;;16.40;99.90;;;;;;4937381;29;20481;-71
2021/08/27 07:49:45;;;;;;;12.73;11.47;;;16.40;99.90;;;;;;4920052;29;20414;-71
2021/08/27 07:52:15;;;;;;;11.47;10.70;;;16.50;99.90;;;;;;4937310;29;20455;-70
2021/08/27 07:54:43;;;;;;;14.57;13.50;;;16.60;99.90;;;;;;4937094;29;20825;-71
2021/08/27 07:57:11;;;;;;;10.70;9.70;;;16.60;99.90;;;;;;4934643;29;20491;-71
2021/08/27 07:59:39;;;;;;;5.07;3.15;;;16.60;99.90;;;;;;4935922;29;20447;-71
2021/08/27 08:02:08;;;;;;;11.50;10.80;;;16.70;99.90;;;;;;4919987;29;20298;-71
2021/08/27 08:04:36;;;;;;;5.70;3.92;;;16.70;99.90;;;;;;4937391;29;20445;-71
2021/08/27 08:07:05;;;;;;;10.07;9.23;;;16.70;99.90;;;;;;4941142;29;20218;-71
2021/08/27 08:09:34;;;;;;;7.87;7.37;;;16.80;99.90;;;;;;4941280;29;20982;-71
2021/08/27 08:12:02;;;;;;;9.57;8.93;;;16.80;99.90;;;;;;4940824;29;20425;-71
2021/08/27 08:14:30;;;;;;;10.50;9.90;;;16.80;99.90;;;;;;4923547;29;20578;-71
2021/08/27 08:16:59;;;;;;;11.50;10.80;;;16.80;99.90;;;;;;4941127;29;20507;-71
2021/08/27 08:19:27;;;;;;;10.27;9.57;;;16.90;99.90;;;;;;4939176;29;20425;-71
2021/08/27 08:21:55;;;;;;;10.13;9.53;;;16.90;99.90;;;;;;4940030;29;20434;-70
2021/08/27 08:24:23;;;;;;;11.10;10.30;;;16.90;99.90;;;;;;4939886;29;20440;-70
2021/08/27 08:26:53;;;;;;;11.83;11.03;;;16.90;99.90;;;;;;4939511;29;20471;-70
2021/08/27 08:29:21;;;;;;;12.80;12.00;;;16.80;99.90;;;;;;4922579;29;20546;-71
2021/08/27 08:31:51;;;;;;;10.73;10.03;;;16.80;99.90;;;;;;4939566;29;20457;-70
2021/08/27 08:34:19;;;;;;;10.90;10.10;;;16.80;99.90;;;;;;4939277;29;20467;-71
2021/08/27 08:36:47;;;;;;;13.20;12.43;;;16.80;99.90;;;;;;4939417;29;20497;-70
2021/08/27 08:39:15;;;;;;;6.22;3.60;;;16.80;99.90;;;;;;4938673;29;20510;-71
2021/08/27 08:41:47;;;;;;;7.80;7.10;;;16.90;99.90;;;;;;4920195;29;20235;-71
2021/08/27 08:44:17;;;;;;;9.00;8.27;;;16.90;99.90;;;;;;4939478;29;20524;-71
2021/08/27 08:46:47;;;;;;;12.60;11.70;;;16.90;99.90;;;;;;4939149;29;20448;-71
2021/08/27 08:49:20;;;;;;;10.40;9.60;;;16.90;99.90;;;;;;4939518;29;20509;-71
2021/08/27 08:51:51;;;;;;;10.13;9.43;;;16.90;99.90;;;;;;4939966;29;20493;-71
2021/08/27 08:54:20;;;;;;;14.77;13.50;;;16.90;99.90;;;;;;4939280;29;20433;-71
2021/08/27 08:56:48;;;;;;;12.60;11.80;;;16.90;99.90;;;;;;4939334;29;20447;-71
2021/08/27 08:59:18;;;;;;;12.87;12.03;;;16.90;99.90;;;;;;4939379;29;20545;-71
2021/08/27 09:01:46;;;;;;;11.37;9.20;;;16.90;99.90;;;;;;4939330;29;20522;-72
2021/08/27 09:04:14;;;;;;;10.20;9.30;;;16.80;99.90;;;;;;4937971;29;20453;-72
2021/08/27 09:06:43;;;;;;;6.82;5.85;;;16.80;99.90;;;;;;4921693;29;20527;-72
2021/08/27 09:09:11;;;;;;;8.23;7.53;;;16.80;99.90;;;;;;4922013;29;20298;-72
2021/08/27 09:11:40;;;;;;;8.17;7.47;;;16.80;99.90;;;;;;4939378;29;20458;-72
2021/08/27 09:14:08;;;;;;;8.43;7.80;;;16.70;99.90;;;;;;4938661;29;20444;-72
2021/08/27 09:16:37;;;;;;;9.43;7.50;;;16.70;99.90;;;;;;4938599;29;20429;-71
2021/08/27 09:19:06;;;;;;;10.13;9.33;;;16.70;99.90;;;;;;4921906;29;20440;-71
2021/08/27 09:21:40;;;;;;;11.57;10.80;;;16.60;99.90;;;;;;4939027;29;20437;-72
2021/08/27 09:24:19;;;;;;;10.77;9.80;;;16.60;99.90;;;;;;4938543;29;20863;-71
2021/08/27 09:26:50;;;;;;;8.50;7.90;;;16.60;99.90;;;;;;4921543;29;20452;-71
2021/08/27 09:29:36;;;;;;;10.27;9.47;;;16.50;99.90;;;;;;4938427;29;20509;-72
2021/08/27 09:32:21;;;;;;;8.10;7.40;;;16.50;99.90;;;;;;4921322;29;20517;-71
2021/08/27 09:35:00;;;;;;;10.27;9.53;;;16.50;99.90;;;;;;4883742;29;21016;-71
2021/08/27 09:37:53;;;;;;;12.13;10.77;;;16.50;99.90;;;;;;4900855;29;20434;-71
2021/08/27 09:40:27;;;;;;;11.63;10.60;;;16.50;99.90;;;;;;4886450;29;20475;-71
2021/08/27 09:42:57;;;;;;;12.93;11.77;;;16.50;99.90;;;;;;4883751;29;20539;-71
2021/08/27 09:45:34;;;;;;;12.27;11.33;;;16.50;99.90;;;;;;4900649;29;20466;-71
2021/08/27 09:48:06;;;;;;;14.07;13.10;;;16.60;99.90;;;;;;4900867;29;20500;-71
2021/08/27 09:50:36;;;;;;;9.57;8.87;;;16.60;99.90;;;;;;4901033;29;20422;-71
2021/08/27 09:53:06;;;;;;;8.30;7.63;;;16.60;99.90;;;;;;4900472;29;20444;-71
2021/08/27 09:55:35;;;;;;;11.20;10.40;;;16.70;99.90;;;;;;4908305;29;20437;-71
2021/08/27 09:58:06;;;;;;;12.40;11.40;;;16.70;99.90;;;;;;4938186;29;20421;-71
2021/08/27 10:00:36;;;;;;;11.73;10.53;;;16.70;99.90;;;;;;4938584;29;20764;-71
2021/08/27 10:03:20;;;;;;;12.17;11.30;;;16.70;99.90;;;;;;4937742;29;20446;-71
2021/08/27 10:05:50;;;;;;;11.47;10.43;;;16.80;99.90;;;;;;4900195;29;20487;-71
2021/08/27 10:08:20;;;;;;;15.33;14.27;;;16.80;99.90;;;;;;4882952;29;20473;-71
2021/08/27 10:10:51;;;;;;;9.10;8.50;;;16.80;99.90;;;;;;4899951;29;20500;-71
2021/08/27 10:13:19;;;;;;;7.75;7.15;;;16.90;99.90;;;;;;4882734;29;20450;-71
2021/08/27 10:15:48;;;;;;;10.87;9.77;;;16.90;99.90;;;;;;4883532;29;20223;-71
2021/08/27 10:18:16;;;;;;;11.90;11.03;;;16.90;99.90;;;;;;4900196;29;20458;-72
2021/08/27 10:20:47;;;;;;;11.27;9.40;;;16.90;99.90;;;;;;4937633;29;20891;-71
2021/08/27 10:23:18;;;;;;;14.77;13.63;;;16.90;99.90;;;;;;4937595;29;20943;-71
2021/08/27 10:25:46;;;;;;;14.23;12.90;;;17.00;99.90;;;;;;4937819;29;20402;-71
2021/08/27 10:28:15;;;;;;;12.73;11.23;;;17.00;99.90;;;;;;4936916;29;20474;-71
2021/08/27 10:30:55;;;;;;;12.60;11.73;;;17.10;99.90;;;;;;4938022;29;20807;-71
2021/08/27 10:34:09;;;;;;;16.33;15.17;;;17.20;99.90;;;;;;4937327;29;20550;-71
2021/08/27 10:36:49;;;;;;;15.30;14.43;;;17.20;99.90;;;;;;4937670;29;20406;-71
2021/08/27 10:39:40;;;;;;;16.83;15.60;;;17.20;99.90;;;;;;4920196;29;20432;-71
2021/08/27 10:42:10;;;;;;;16.17;15.10;;;17.20;99.90;;;;;;4935281;29;20466;-71
2021/08/27 10:44:53;;;;;;;16.70;15.33;;;17.20;99.90;;;;;;4937065;29;20505;-71
2021/08/27 10:47:21;;;;;;;4.13;3.65;;;17.20;99.90;;;;;;4919453;29;20448;-71
2021/08/27 10:50:00;;;;;;;14.27;13.13;;;17.30;99.90;;;;;;4936519;29;20630;-71
2021/08/27 10:52:39;;;;;;;6.00;5.60;;;17.40;99.90;;;;;;4919648;29;20467;-71
2021/08/27 10:55:14;;;;;;;14.23;13.47;;;17.40;99.90;;;;;;4937168;29;20286;-71
2021/08/27 10:57:50;;;;;;;16.90;15.33;;;17.50;99.90;;;;;;4937478;29;20971;-70
2021/08/27 11:00:36;;;;;;;19.27;18.33;;;17.50;99.90;;;;;;4937185;29;20530;-71
2021/08/27 11:03:05;;;;;;;17.70;15.73;;;17.50;99.90;;;;;;4936731;29;20444;-71
2021/08/27 11:05:43;;;;;;;17.53;16.50;;;17.50;99.90;;;;;;4936797;29;20418;-71
2021/08/27 11:08:16;;;;;;;18.23;16.83;;;17.50;99.90;;;;;;4936943;29;20919;-71
2021/08/27 11:11:22;;;;;;;29.97;16.53;;;17.50;99.90;;;;;;4918531;29;20812;-71
2021/08/27 11:13:50;;;;;;;17.63;16.13;;;17.40;99.90;;;;;;4881906;29;20560;-71
2021/08/27 11:16:26;;;;;;;17.67;15.10;;;17.40;99.90;;;;;;4905138;29;20467;-71
2021/08/27 11:18:54;;;;;;;19.70;17.70;;;17.40;99.90;;;;;;4936830;29;20422;-71
2021/08/27 11:21:34;;;;;;;15.37;14.03;;;17.50;99.90;;;;;;4936703;29;20491;-71
2021/08/27 11:24:17;;;;;;;20.00;15.77;;;17.50;99.90;;;;;;4936778;29;20441;-71
2021/08/27 11:26:48;;;;;;;12.53;11.63;;;17.60;99.90;;;;;;4919374;29;20532;-71
2021/08/27 11:29:30;;;;;;;20.43;18.97;;;17.60;99.90;;;;;;4919370;29;20467;-71
2021/08/27 11:32:07;;;;;;;19.93;14.53;;;17.60;99.90;;;;;;4935921;29;20458;-71
2021/08/27 11:34:50;;;;;;;19.13;15.17;;;17.70;99.90;;;;;;4936570;29;21043;-71
2021/08/27 11:37:19;;;;;;;20.50;15.03;;;17.80;99.90;;;;;;4936279;29;20538;-71
2021/08/27 11:39:49;;;;;;;29.33;17.37;;;17.80;99.90;;;;;;4935507;29;20447;-71
2021/08/27 11:42:18;;;;;;;16.47;15.03;;;17.80;99.90;;;;;;4936493;29;20428;-71
2021/08/27 11:44:55;;;;;;;27.23;20.03;;;17.90;99.90;;;;;;4936037;29;21078;-71
2021/08/27 11:47:23;;;;;;;29.23;18.20;;;17.90;99.90;;;;;;4919033;29;20450;-71
2021/08/27 11:49:57;;;;;;;5.85;4.00;;;18.00;99.90;;;;;;4918302;29;20948;-71
2021/08/27 11:52:28;;;;;;;12.97;11.93;;;18.00;99.90;;;;;;4927417;29;20213;-71
2021/08/27 11:55:02;;;;;;;10.33;9.43;;;18.20;99.90;;;;;;4918759;29;20540;-71
2021/08/27 11:57:30;;;;;;;15.00;14.00;;;18.30;99.90;;;;;;4936403;29;20427;-71
2021/08/27 12:00:10;;;;;;;15.03;13.83;;;18.40;99.90;;;;;;4918999;29;20972;-71
2021/08/27 12:02:42;;;;;;;18.40;15.63;;;18.40;99.90;;;;;;4936002;29;20424;-71
2021/08/27 12:05:12;;;;;;;46.83;18.70;;;18.50;99.90;;;;;;4936303;29;20955;-71
2021/08/27 12:07:50;;;;;;;29.73;16.43;;;18.50;99.90;;;;;;4936411;29;20455;-71
2021/08/27 12:10:21;;;;;;;17.13;15.53;;;18.60;99.90;;;;;;4936250;29;20467;-71
2021/08/27 12:12:51;;;;;;;20.50;19.07;;;18.70;99.90;;;;;;4936583;29;20563;-71
2021/08/27 12:15:22;;;;;;;23.33;19.97;;;18.70;99.90;;;;;;4935848;29;20977;-71
2021/08/27 12:17:58;;;;;;;20.00;18.63;;;18.70;99.90;;;;;;4936028;29;20482;-71
2021/08/27 12:20:28;;;;;;;25.30;21.53;;;18.80;99.90;;;;;;4935581;29;20447;-71
2021/08/27 12:23:01;;;;;;;6.35;4.43;;;18.90;99.90;;;;;;4935302;29;20934;-71
2021/08/27 12:25:38;;;;;;;20.80;18.83;;;18.90;99.90;;;;;;4918793;29;20214;-71
2021/08/27 12:28:31;;;;;;;5.88;5.32;;;19.00;99.90;;;;;;4935761;29;20915;-70
2021/08/27 12:30:59;;;;;;;22.67;16.47;;;19.10;99.90;;;;;;4918894;29;20203;-71
2021/08/27 12:33:29;;;;;;;16.97;15.90;;;19.10;99.90;;;;;;4935988;29;20478;-71
2021/08/27 12:35:57;;;;;;;46.23;18.90;;;19.00;99.90;;;;;;4935668;29;20455;-71
2021/08/27 12:38:26;;;;;;;17.23;16.03;;;19.00;99.90;;;;;;4935904;29;20534;-71
2021/08/27 12:40:55;;;;;;;27.97;22.63;;;19.00;99.90;;;;;;4917801;29;20454;-71
2021/08/27 12:43:25;;;;;;;24.30;21.90;;;19.00;99.90;;;;;;4935571;29;20475;-71
2021/08/27 12:45:54;;;;;;;26.07;23.33;;;19.00;99.90;;;;;;4918662;29;20462;-71
2021/08/27 12:48:25;;;;;;;31.27;16.37;;;19.00;99.90;;;;;;4935788;29;20570;-71
2021/08/27 12:50:54;;;;;;;35.47;24.37;;;19.10;99.90;;;;;;4937109;29;20511;-71
2021/08/27 12:53:31;;;;;;;29.90;17.43;;;19.20;99.90;;;;;;4939565;29;20466;-71
2021/08/27 12:56:15;;;;;;;23.60;21.60;;;19.30;99.90;;;;;;4939735;29;20434;-70
2021/08/27 12:58:45;;;;;;;28.97;25.17;;;19.40;99.90;;;;;;4922000;29;20951;-70
2021/08/27 13:01:19;;;;;;;64.03;26.93;;;19.40;99.90;;;;;;4921991;29;20439;-70